Freda, North Dakota
Current Conditions -  °F | °C
As of 4:15 AM on Thursday 18 Dec 2014 (Local Time) from KY19 Reporting Station
Overcast Overcast  
Wind Chill:   Ceiling: 500
Heat Index: 16°   Visibility: 9mi
Dew Point: 14°   Wind: 6mph
Humidity: 93%   Direction: 130°SE
Pressure: 30.08"   Gusts: NA
Location:  46.3317°N, 101.236°W
Report Text: KY19 181115Z AUTO 13005KT 9SM OVC005 M09/M10 A3008 RMK AO2
Loading
Personal Weather Stations






























Interactive Weather Map New forecast layout! Learn more

10-Day Weather Forecast

Advertisements
Track Severe Weather on mobile